sensor_id;sensor_type;location;lat;lon;timestamp;pressure;altitude;pressure_sealevel;temperature;humidity
35519;BME280;21627;48.216;16.482;2023-07-28T00:01:02;99211.88;;;20.60;58.27
35519;BME280;21627;48.216;16.482;2023-07-28T00:03:29;99199.75;;;20.58;59.11
35519;BME280;21627;48.216;16.482;2023-07-28T00:05:56;99202.38;;;20.58;59.05
35519;BME280;21627;48.216;16.482;2023-07-28T00:08:24;99208.31;;;20.61;60.29
35519;BME280;21627;48.216;16.482;2023-07-28T00:10:51;99197.19;;;20.56;60.91
35519;BME280;21627;48.216;16.482;2023-07-28T00:13:18;99194.66;;;20.55;60.22
35519;BME280;21627;48.216;16.482;2023-07-28T00:15:45;99208.66;;;20.55;61.07
35519;BME280;21627;48.216;16.482;2023-07-28T00:18:12;99199.09;;;20.52;61.76
35519;BME280;21627;48.216;16.482;2023-07-28T00:20:39;99194.69;;;20.53;61.27
35519;BME280;21627;48.216;16.482;2023-07-28T00:23:08;99192.88;;;20.55;61.01
35519;BME280;21627;48.216;16.482;2023-07-28T00:25:35;99200.88;;;20.52;61.96
35519;BME280;21627;48.216;16.482;2023-07-28T00:28:02;99201.78;;;20.51;62.12
35519;BME280;21627;48.216;16.482;2023-07-28T00:30:29;99203.06;;;20.44;62.98
35519;BME280;21627;48.216;16.482;2023-07-28T00:32:58;99211.78;;;20.44;63.62
35519;BME280;21627;48.216;16.482;2023-07-28T00:35:25;99211.84;;;20.43;64.47
35519;BME280;21627;48.216;16.482;2023-07-28T00:37:52;99205.91;;;20.39;63.56
35519;BME280;21627;48.216;16.482;2023-07-28T00:40:19;99216.19;;;20.44;64.12
35519;BME280;21627;48.216;16.482;2023-07-28T00:42:46;99201.28;;;20.44;63.46
35519;BME280;21627;48.216;16.482;2023-07-28T00:45:13;99205.81;;;20.41;63.91
35519;BME280;21627;48.216;16.482;2023-07-28T00:47:41;99204.13;;;20.40;64.76
35519;BME280;21627;48.216;16.482;2023-07-28T00:50:10;99195.88;;;20.47;64.57
35519;BME280;21627;48.216;16.482;2023-07-28T00:52:37;99203.97;;;20.43;64.62
35519;BME280;21627;48.216;16.482;2023-07-28T00:55:06;99202.34;;;20.40;64.30
35519;BME280;21627;48.216;16.482;2023-07-28T00:57:36;99198.09;;;20.38;64.91
35519;BME280;21627;48.216;16.482;2023-07-28T01:00:07;99200.72;;;20.38;64.82
35519;BME280;21627;48.216;16.482;2023-07-28T01:02:34;99195.41;;;20.39;64.91
35519;BME280;21627;48.216;16.482;2023-07-28T01:05:03;99204.91;;;20.42;64.95
35519;BME280;21627;48.216;16.482;2023-07-28T01:10:32;99198.03;;;20.39;65.17
35519;BME280;21627;48.216;16.482;2023-07-28T01:12:59;99192.63;;;20.42;64.94
35519;BME280;21627;48.216;16.482;2023-07-28T01:15:26;99192.56;;;20.44;65.27
35519;BME280;21627;48.216;16.482;2023-07-28T01:17:54;99198.81;;;20.41;65.55
35519;BME280;21627;48.216;16.482;2023-07-28T01:20:24;99202.34;;;20.40;65.74
35519;BME280;21627;48.216;16.482;2023-07-28T01:23:23;99198.88;;;20.40;66.75
35519;BME280;21627;48.216;16.482;2023-07-28T01:26:11;99182.44;;;20.36;67.19
35519;BME280;21627;48.216;16.482;2023-07-28T01:28:41;99182.50;;;20.35;68.18
35519;BME280;21627;48.216;16.482;2023-07-28T01:31:09;99181.72;;;20.32;68.59
35519;BME280;21627;48.216;16.482;2023-07-28T01:33:37;99167.75;;;20.32;70.16
35519;BME280;21627;48.216;16.482;2023-07-28T01:36:04;99173.06;;;20.30;70.28
35519;BME280;21627;48.216;16.482;2023-07-28T01:38:31;99177.78;;;20.24;69.81
35519;BME280;21627;48.216;16.482;2023-07-28T01:40:58;99184.50;;;20.29;70.85
35519;BME280;21627;48.216;16.482;2023-07-28T01:43:25;99188.97;;;20.27;71.00
35519;BME280;21627;48.216;16.482;2023-07-28T01:45:52;99180.31;;;20.25;71.78
35519;BME280;21627;48.216;16.482;2023-07-28T01:48:19;99180.41;;;20.24;71.35
35519;BME280;21627;48.216;16.482;2023-07-28T01:50:46;99190.03;;;20.23;71.42
35519;BME280;21627;48.216;16.482;2023-07-28T01:53:14;99175.00;;;20.27;71.71
35519;BME280;21627;48.216;16.482;2023-07-28T01:55:41;99170.66;;;20.26;71.74
35519;BME280;21627;48.216;16.482;2023-07-28T01:58:08;99170.03;;;20.21;72.52
35519;BME280;21627;48.216;16.482;2023-07-28T02:00:36;99147.88;;;20.09;72.66
35519;BME280;21627;48.216;16.482;2023-07-28T02:03:03;99169.28;;;20.19;73.38
35519;BME280;21627;48.216;16.482;2023-07-28T02:05:31;99167.41;;;20.21;74.86
35519;BME280;21627;48.216;16.482;2023-07-28T02:07:58;99159.00;;;20.14;75.45
35519;BME280;21627;48.216;16.482;2023-07-28T02:10:28;99174.66;;;20.16;76.19
35519;BME280;21627;48.216;16.482;2023-07-28T02:12:55;99161.78;;;20.11;76.18
35519;BME280;21627;48.216;16.482;2023-07-28T02:15:22;99163.41;;;20.14;78.37
35519;BME280;21627;48.216;16.482;2023-07-28T02:17:49;99160.00;;;20.12;78.15
35519;BME280;21627;48.216;16.482;2023-07-28T02:20:16;99161.91;;;20.08;77.37
35519;BME280;21627;48.216;16.482;2023-07-28T02:22:44;99160.28;;;20.05;77.67
35519;BME280;21627;48.216;16.482;2023-07-28T02:25:11;99162.69;;;20.10;76.94
35519;BME280;21627;48.216;16.482;2023-07-28T02:27:38;99147.41;;;20.01;76.79
35519;BME280;21627;48.216;16.482;2023-07-28T02:30:06;99158.81;;;20.00;78.80
35519;BME280;21627;48.216;16.482;2023-07-28T02:32:34;99167.53;;;20.00;79.94
35519;BME280;21627;48.216;16.482;2023-07-28T02:35:01;99158.25;;;19.93;81.55
35519;BME280;21627;48.216;16.482;2023-07-28T02:37:28;99165.41;;;19.89;82.37
35519;BME280;21627;48.216;16.482;2023-07-28T02:39:56;99170.59;;;19.91;83.58
35519;BME280;21627;48.216;16.482;2023-07-28T02:42:23;99163.09;;;19.83;84.38
35519;BME280;21627;48.216;16.482;2023-07-28T02:44:52;99166.63;;;19.82;85.84
35519;BME280;21627;48.216;16.482;2023-07-28T02:47:19;99162.47;;;19.78;87.15
35519;BME280;21627;48.216;16.482;2023-07-28T02:49:46;99148.63;;;19.75;87.96
35519;BME280;21627;48.216;16.482;2023-07-28T02:52:13;99151.41;;;19.72;88.88
35519;BME280;21627;48.216;16.482;2023-07-28T02:54:40;99142.94;;;19.65;90.24
35519;BME280;21627;48.216;16.482;2023-07-28T02:57:08;99151.88;;;19.61;89.65
35519;BME280;21627;48.216;16.482;2023-07-28T02:59:35;99144.91;;;19.60;88.85
35519;BME280;21627;48.216;16.482;2023-07-28T03:02:02;99144.44;;;19.52;89.54
35519;BME280;21627;48.216;16.482;2023-07-28T03:04:29;99150.47;;;19.54;91.29
35519;BME280;21627;48.216;16.482;2023-07-28T03:06:56;99147.25;;;19.47;91.88
35519;BME280;21627;48.216;16.482;2023-07-28T03:09:23;99155.13;;;19.47;92.38
35519;BME280;21627;48.216;16.482;2023-07-28T03:11:50;99153.44;;;19.46;92.39
35519;BME280;21627;48.216;16.482;2023-07-28T03:14:17;99143.22;;;19.40;93.19
35519;BME280;21627;48.216;16.482;2023-07-28T03:16:47;99137.13;;;19.39;93.84
35519;BME280;21627;48.216;16.482;2023-07-28T03:19:15;99133.72;;;19.37;95.15
35519;BME280;21627;48.216;16.482;2023-07-28T03:21:43;99142.66;;;19.33;95.67
35519;BME280;21627;48.216;16.482;2023-07-28T03:24:10;99142.78;;;19.30;96.48
35519;BME280;21627;48.216;16.482;2023-07-28T03:26:37;99144.66;;;19.28;94.87
35519;BME280;21627;48.216;16.482;2023-07-28T03:29:04;99141.09;;;19.29;94.28
35519;BME280;21627;48.216;16.482;2023-07-28T03:31:31;99131.66;;;19.25;92.83
35519;BME280;21627;48.216;16.482;2023-07-28T03:34:03;99135.34;;;19.21;92.12
35519;BME280;21627;48.216;16.482;2023-07-28T03:36:30;99142.22;;;19.23;91.27
35519;BME280;21627;48.216;16.482;2023-07-28T03:38:57;99144.91;;;19.22;90.97
35519;BME280;21627;48.216;16.482;2023-07-28T03:41:25;99133.53;;;19.23;90.18
35519;BME280;21627;48.216;16.482;2023-07-28T03:43:52;99131.66;;;19.25;89.07
35519;BME280;21627;48.216;16.482;2023-07-28T03:46:19;99133.59;;;19.21;89.25
35519;BME280;21627;48.216;16.482;2023-07-28T03:48:46;99142.38;;;19.20;88.00
35519;BME280;21627;48.216;16.482;2023-07-28T03:51:13;99146.97;;;19.15;89.41
35519;BME280;21627;48.216;16.482;2023-07-28T03:53:40;99147.88;;;19.14;89.20
35519;BME280;21627;48.216;16.482;2023-07-28T03:56:07;99148.59;;;19.18;87.88
35519;BME280;21627;48.216;16.482;2023-07-28T03:58:34;99129.72;;;19.10;86.18
35519;BME280;21627;48.216;16.482;2023-07-28T04:01:01;99130.47;;;19.13;86.30
35519;BME280;21627;48.216;16.482;2023-07-28T04:03:28;99120.19;;;19.09;86.30
35519;BME280;21627;48.216;16.482;2023-07-28T04:05:56;99111.53;;;19.07;85.94
35519;BME280;21627;48.216;16.482;2023-07-28T04:08:23;99113.47;;;19.03;85.21
35519;BME280;21627;48.216;16.482;2023-07-28T04:10:50;99126.34;;;19.08;84.72
35519;BME280;21627;48.216;16.482;2023-07-28T04:13:17;99132.59;;;19.05;83.75
35519;BME280;21627;48.216;16.482;2023-07-28T04:15:44;99127.53;;;19.00;82.92
35519;BME280;21627;48.216;16.482;2023-07-28T04:18:11;99129.31;;;19.00;82.82
35519;BME280;21627;48.216;16.482;2023-07-28T04:20:38;99122.38;;;18.99;82.49
35519;BME280;21627;48.216;16.482;2023-07-28T04:23:05;99115.69;;;18.92;82.99
35519;BME280;21627;48.216;16.482;2023-07-28T04:25:32;99122.41;;;18.97;82.43
35519;BME280;21627;48.216;16.482;2023-07-28T04:27:59;99134.66;;;18.97;82.33
35519;BME280;21627;48.216;16.482;2023-07-28T04:30:26;99132.91;;;18.97;82.99
35519;BME280;21627;48.216;16.482;2023-07-28T04:32:54;99138.09;;;18.99;83.88
35519;BME280;21627;48.216;16.482;2023-07-28T04:35:21;99138.94;;;18.99;83.05
35519;BME280;21627;48.216;16.482;2023-07-28T04:37:48;99131.00;;;19.01;86.68
35519;BME280;21627;48.216;16.482;2023-07-28T04:40:15;99126.75;;;18.98;87.12
35519;BME280;21627;48.216;16.482;2023-07-28T04:42:43;99133.56;;;19.02;88.32
35519;BME280;21627;48.216;16.482;2023-07-28T04:45:10;99138.88;;;19.01;88.10
35519;BME280;21627;48.216;16.482;2023-07-28T04:47:37;99135.31;;;19.02;86.89
35519;BME280;21627;48.216;16.482;2023-07-28T04:50:05;99144.81;;;19.05;88.57
35519;BME280;21627;48.216;16.482;2023-07-28T04:52:32;99145.47;;;19.10;86.00
35519;BME280;21627;48.216;16.482;2023-07-28T04:54:59;99144.69;;;19.08;85.02
35519;BME280;21627;48.216;16.482;2023-07-28T04:57:26;99141.94;;;19.11;83.46
35519;BME280;21627;48.216;16.482;2023-07-28T04:59:53;99138.31;;;19.13;81.38
35519;BME280;21627;48.216;16.482;2023-07-28T05:02:20;99143.63;;;19.12;83.38
35519;BME280;21627;48.216;16.482;2023-07-28T05:04:47;99148.66;;;19.16;85.62
35519;BME280;21627;48.216;16.482;2023-07-28T05:07:14;99148.88;;;19.12;86.12
35519;BME280;21627;48.216;16.482;2023-07-28T05:09:41;99155.88;;;19.11;87.39
35519;BME280;21627;48.216;16.482;2023-07-28T05:12:08;99153.22;;;19.13;86.91
35519;BME280;21627;48.216;16.482;2023-07-28T05:14:35;99147.97;;;19.13;86.41
35519;BME280;21627;48.216;16.482;2023-07-28T05:17:03;99150.44;;;19.16;81.96
35519;BME280;21627;48.216;16.482;2023-07-28T05:19:30;99149.59;;;19.15;80.24
35519;BME280;21627;48.216;16.482;2023-07-28T05:21:57;99143.38;;;19.18;79.23
35519;BME280;21627;48.216;16.482;2023-07-28T05:24:24;99152.88;;;19.20;80.27
35519;BME280;21627;48.216;16.482;2023-07-28T05:26:51;99157.22;;;19.20;81.41
35519;BME280;21627;48.216;16.482;2023-07-28T05:29:19;99155.47;;;19.20;83.45
35519;BME280;21627;48.216;16.482;2023-07-28T05:31:46;99158.00;;;19.22;83.16
35519;BME280;21627;48.216;16.482;2023-07-28T05:34:13;99164.34;;;19.18;83.47
35519;BME280;21627;48.216;16.482;2023-07-28T05:36:40;99160.72;;;19.20;83.52
35519;BME280;21627;48.216;16.482;2023-07-28T05:39:07;99170.06;;;19.26;81.75
35519;BME280;21627;48.216;16.482;2023-07-28T05:41:35;99177.94;;;19.26;82.94
35519;BME280;21627;48.216;16.482;2023-07-28T05:44:03;99165.72;;;19.25;82.14
35519;BME280;21627;48.216;16.482;2023-07-28T05:46:30;99158.84;;;19.22;81.94
35519;BME280;21627;48.216;16.482;2023-07-28T05:48:58;99169.13;;;19.27;82.05
35519;BME280;21627;48.216;16.482;2023-07-28T05:51:25;99162.06;;;19.29;82.13
35519;BME280;21627;48.216;16.482;2023-07-28T05:53:52;99169.97;;;19.28;82.83
35519;BME280;21627;48.216;16.482;2023-07-28T05:56:19;99160.38;;;19.28;83.45
35519;BME280;21627;48.216;16.482;2023-07-28T05:58:47;99161.13;;;19.30;84.11
35519;BME280;21627;48.216;16.482;2023-07-28T06:01:15;99161.28;;;19.27;83.88
35519;BME280;21627;48.216;16.482;2023-07-28T06:03:42;99159.28;;;19.32;81.57
35519;BME280;21627;48.216;16.482;2023-07-28T06:06:12;99155.88;;;19.30;81.95
35519;BME280;21627;48.216;16.482;2023-07-28T06:08:39;99154.84;;;19.34;83.13
35519;BME280;21627;48.216;16.482;2023-07-28T06:11:06;99163.78;;;19.49;81.68
35519;BME280;21627;48.216;16.482;2023-07-28T06:13:34;99158.88;;;19.41;81.52
35519;BME280;21627;48.216;16.482;2023-07-28T06:16:01;99167.41;;;19.46;81.76
35519;BME280;21627;48.216;16.482;2023-07-28T06:18:28;99170.00;;;19.46;81.29
35519;BME280;21627;48.216;16.482;2023-07-28T06:20:55;99162.22;;;19.45;81.97
35519;BME280;21627;48.216;16.482;2023-07-28T06:23:22;99180.16;;;19.54;80.72
35519;BME280;21627;48.216;16.482;2023-07-28T06:25:50;99167.69;;;19.59;79.74
35519;BME280;21627;48.216;16.482;2023-07-28T06:28:18;99167.94;;;19.74;77.80
35519;BME280;21627;48.216;16.482;2023-07-28T06:30:45;99172.19;;;19.76;77.67
35519;BME280;21627;48.216;16.482;2023-07-28T06:33:12;99161.53;;;19.79;79.31
35519;BME280;21627;48.216;16.482;2023-07-28T06:35:39;99154.50;;;19.80;78.03
35519;BME280;21627;48.216;16.482;2023-07-28T06:38:07;99169.03;;;19.87;78.37
35519;BME280;21627;48.216;16.482;2023-07-28T06:40:34;99172.34;;;19.91;79.20
35519;BME280;21627;48.216;16.482;2023-07-28T06:43:01;99174.75;;;19.95;78.33
35519;BME280;21627;48.216;16.482;2023-07-28T06:45:28;99162.72;;;19.91;79.00
35519;BME280;21627;48.216;16.482;2023-07-28T06:47:56;99158.03;;;19.98;80.31
35519;BME280;21627;48.216;16.482;2023-07-28T06:50:23;99171.56;;;20.07;77.51
35519;BME280;21627;48.216;16.482;2023-07-28T06:52:50;99160.84;;;20.12;77.33
35519;BME280;21627;48.216;16.482;2023-07-28T06:55:18;99159.78;;;20.16;77.58
35519;BME280;21627;48.216;16.482;2023-07-28T06:57:48;99158.47;;;20.25;76.67
35519;BME280;21627;48.216;16.482;2023-07-28T07:00:17;99151.28;;;20.28;78.45
35519;BME280;21627;48.216;16.482;2023-07-28T07:02:47;99156.78;;;20.41;78.04
35519;BME280;21627;48.216;16.482;2023-07-28T07:05:14;99153.00;;;20.47;77.63
35519;BME280;21627;48.216;16.482;2023-07-28T07:07:41;99155.63;;;20.47;76.25
35519;BME280;21627;48.216;16.482;2023-07-28T07:10:08;99154.69;;;20.48;76.33
35519;BME280;21627;48.216;16.482;2023-07-28T07:12:36;99160.97;;;20.63;75.45
35519;BME280;21627;48.216;16.482;2023-07-28T07:15:04;99161.59;;;20.68;73.48
35519;BME280;21627;48.216;16.482;2023-07-28T07:17:32;99159.41;;;20.76;72.16
35519;BME280;21627;48.216;16.482;2023-07-28T07:20:00;99163.38;;;20.85;73.58
35519;BME280;21627;48.216;16.482;2023-07-28T07:22:27;99173.53;;;20.91;71.13
35519;BME280;21627;48.216;16.482;2023-07-28T07:24:56;99162.50;;;21.02;73.86
35519;BME280;21627;48.216;16.482;2023-07-28T07:27:26;99165.31;;;21.14;72.07
35519;BME280;21627;48.216;16.482;2023-07-28T07:29:53;99171.88;;;21.23;75.99
35519;BME280;21627;48.216;16.482;2023-07-28T07:32:20;99160.88;;;21.32;72.49
35519;BME280;21627;48.216;16.482;2023-07-28T07:34:47;99172.38;;;21.47;70.65
35519;BME280;21627;48.216;16.482;2023-07-28T07:37:14;99171.59;;;21.61;71.93
35519;BME280;21627;48.216;16.482;2023-07-28T07:39:42;99173.91;;;21.67;69.11
35519;BME280;21627;48.216;16.482;2023-07-28T07:42:10;99167.81;;;21.82;66.89
35519;BME280;21627;48.216;16.482;2023-07-28T07:44:41;99162.53;;;21.98;64.45
35519;BME280;21627;48.216;16.482;2023-07-28T07:47:13;99176.09;;;22.07;67.30
35519;BME280;21627;48.216;16.482;2023-07-28T07:49:44;99167.94;;;22.11;67.41
35519;BME280;21627;48.216;16.482;2023-07-28T07:52:11;99160.63;;;22.32;66.19
35519;BME280;21627;48.216;16.482;2023-07-28T07:54:38;99159.91;;;22.44;63.08
35519;BME280;21627;48.216;16.482;2023-07-28T07:57:05;99153.91;;;22.57;64.41
35519;BME280;21627;48.216;16.482;2023-07-28T07:59:33;99161.69;;;22.74;60.31
35519;BME280;21627;48.216;16.482;2023-07-28T08:02:02;99151.91;;;22.76;61.90
35519;BME280;21627;48.216;16.482;2023-07-28T08:04:30;99149.63;;;22.84;59.89
35519;BME280;21627;48.216;16.482;2023-07-28T08:06:58;99158.75;;;23.09;61.68
35519;BME280;21627;48.216;16.482;2023-07-28T08:09:26;99154.47;;;23.21;58.63
35519;BME280;21627;48.216;16.482;2023-07-28T08:11:54;99153.28;;;23.26;59.66
35519;BME280;21627;48.216;16.482;2023-07-28T08:14:21;99149.00;;;23.38;57.95
35519;BME280;21627;48.216;16.482;2023-07-28T08:16:49;99145.88;;;23.46;57.69
35519;BME280;21627;48.216;16.482;2023-07-28T08:19:16;99144.84;;;23.48;56.74
35519;BME280;21627;48.216;16.482;2023-07-28T08:21:43;99144.28;;;23.58;57.59
35519;BME280;21627;48.216;16.482;2023-07-28T08:24:10;99136.81;;;23.79;56.01
35519;BME280;21627;48.216;16.482;2023-07-28T08:26:38;99141.84;;;23.96;56.65
35519;BME280;21627;48.216;16.482;2023-07-28T08:29:05;99141.03;;;24.08;56.92
35519;BME280;21627;48.216;16.482;2023-07-28T08:31:33;99142.22;;;24.04;55.80
35519;BME280;21627;48.216;16.482;2023-07-28T08:34:00;99133.69;;;24.26;55.15
35519;BME280;21627;48.216;16.482;2023-07-28T08:36:27;99133.63;;;24.40;54.43
35519;BME280;21627;48.216;16.482;2023-07-28T08:38:54;99138.97;;;24.53;53.42
35519;BME280;21627;48.216;16.482;2023-07-28T08:41:21;99139.50;;;24.58;53.99
35519;BME280;21627;48.216;16.482;2023-07-28T08:43:49;99131.56;;;24.58;57.72
35519;BME280;21627;48.216;16.482;2023-07-28T08:46:18;99137.19;;;24.79;58.98
35519;BME280;21627;48.216;16.482;2023-07-28T08:48:45;99151.50;;;25.02;60.96
35519;BME280;21627;48.216;16.482;2023-07-28T08:51:13;99155.31;;;25.24;60.97
35519;BME280;21627;48.216;16.482;2023-07-28T08:53:40;99155.06;;;25.40;56.67
35519;BME280;21627;48.216;16.482;2023-07-28T08:56:08;99146.94;;;25.43;56.52
35519;BME280;21627;48.216;16.482;2023-07-28T08:58:36;99161.16;;;25.66;55.62
35519;BME280;21627;48.216;16.482;2023-07-28T09:01:04;99136.84;;;25.85;54.13
35519;BME280;21627;48.216;16.482;2023-07-28T09:03:32;99146.03;;;25.92;54.14
35519;BME280;21627;48.216;16.482;2023-07-28T09:06:02;99147.78;;;26.04;53.98
35519;BME280;21627;48.216;16.482;2023-07-28T09:08:32;99153.69;;;26.32;49.79
35519;BME280;21627;48.216;16.482;2023-07-28T09:11:03;99145.84;;;26.54;50.05
35519;BME280;21627;48.216;16.482;2023-07-28T09:13:41;99144.03;;;26.55;49.32
35519;BME280;21627;48.216;16.482;2023-07-28T09:16:19;99151.06;;;26.79;48.84
35519;BME280;21627;48.216;16.482;2023-07-28T09:18:47;99151.84;;;26.92;48.01
35519;BME280;21627;48.216;16.482;2023-07-28T09:21:20;99155.47;;;27.02;51.97
35519;BME280;21627;48.216;16.482;2023-07-28T09:23:48;99144.97;;;27.12;48.58
35519;BME280;21627;48.216;16.482;2023-07-28T09:26:16;99144.97;;;27.12;47.08
35519;BME280;21627;48.216;16.482;2023-07-28T09:28:43;99148.50;;;27.35;51.61
35519;BME280;21627;48.216;16.482;2023-07-28T09:31:11;99159.84;;;27.59;47.73
35519;BME280;21627;48.216;16.482;2023-07-28T09:33:38;99150.41;;;27.55;46.83
35519;BME280;21627;48.216;16.482;2023-07-28T09:36:14;99153.03;;;27.67;46.76
35519;BME280;21627;48.216;16.482;2023-07-28T09:38:45;99152.94;;;27.68;47.24
35519;BME280;21627;48.216;16.482;2023-07-28T09:41:13;99150.38;;;27.78;46.09
35519;BME280;21627;48.216;16.482;2023-07-28T09:43:41;99157.13;;;27.82;45.20
35519;BME280;21627;48.216;16.482;2023-07-28T09:46:10;99148.16;;;27.94;45.02
35519;BME280;21627;48.216;16.482;2023-07-28T09:48:39;99155.19;;;27.95;43.83
35519;BME280;21627;48.216;16.482;2023-07-28T09:51:16;99146.91;;;28.10;46.86
35519;BME280;21627;48.216;16.482;2023-07-28T09:53:56;99151.38;;;28.09;46.13
35519;BME280;21627;48.216;16.482;2023-07-28T09:56:28;99148.34;;;28.25;44.20
35519;BME280;21627;48.216;16.482;2023-07-28T09:58:59;99138.16;;;28.30;44.62
35519;BME280;21627;48.216;16.482;2023-07-28T10:01:28;99143.22;;;28.33;43.54
35519;BME280;21627;48.216;16.482;2023-07-28T10:03:55;99143.50;;;28.51;43.50
35519;BME280;21627;48.216;16.482;2023-07-28T10:06:23;99130.56;;;28.67;44.71
35519;BME280;21627;48.216;16.482;2023-07-28T10:08:50;99130.78;;;28.55;43.62
35519;BME280;21627;48.216;16.482;2023-07-28T10:11:18;99135.69;;;28.38;43.24
35519;BME280;21627;48.216;16.482;2023-07-28T10:13:47;99143.31;;;28.32;42.70
35519;BME280;21627;48.216;16.482;2023-07-28T10:16:16;99135.53;;;28.40;43.38
35519;BME280;21627;48.216;16.482;2023-07-28T10:19:03;99148.91;;;28.61;42.95
35519;BME280;21627;48.216;16.482;2023-07-28T10:21:30;99131.66;;;28.55;42.88
35519;BME280;21627;48.216;16.482;2023-07-28T10:23:59;99118.59;;;28.52;44.41
35519;BME280;21627;48.216;16.482;2023-07-28T10:26:52;99130.06;;;28.74;45.95
35519;BME280;21627;48.216;16.482;2023-07-28T10:29:24;99139.91;;;29.04;44.53
35519;BME280;21627;48.216;16.482;2023-07-28T10:31:55;99129.50;;;29.22;47.42
35519;BME280;21627;48.216;16.482;2023-07-28T10:34:25;99135.69;;;29.32;43.30
35519;BME280;21627;48.216;16.482;2023-07-28T10:36:59;99143.72;;;29.42;41.57
35519;BME280;21627;48.216;16.482;2023-07-28T10:39:27;99138.53;;;29.40;42.09
35519;BME280;21627;48.216;16.482;2023-07-28T10:42:09;99132.41;;;29.49;44.34
35519;BME280;21627;48.216;16.482;2023-07-28T10:44:37;99134.06;;;29.50;41.09
35519;BME280;21627;48.216;16.482;2023-07-28T10:47:09;99134.78;;;29.52;40.10
35519;BME280;21627;48.216;16.482;2023-07-28T10:49:37;99117.84;;;29.53;41.06
35519;BME280;21627;48.216;16.482;2023-07-28T10:52:04;99135.81;;;29.61;42.17
35519;BME280;21627;48.216;16.482;2023-07-28T10:54:32;99125.59;;;29.76;43.83
35519;BME280;21627;48.216;16.482;2023-07-28T10:57:02;99133.06;;;29.92;42.42
35519;BME280;21627;48.216;16.482;2023-07-28T10:59:33;99129.97;;;30.06;41.59
35519;BME280;21627;48.216;16.482;2023-07-28T11:02:02;99127.75;;;30.02;40.25
35519;BME280;21627;48.216;16.482;2023-07-28T11:04:29;99140.75;;;29.75;42.07
35519;BME280;21627;48.216;16.482;2023-07-28T11:06:56;99128.75;;;29.50;41.70
35519;BME280;21627;48.216;16.482;2023-07-28T11:09:23;99128.44;;;29.34;43.32
35519;BME280;21627;48.216;16.482;2023-07-28T11:11:51;99135.06;;;29.09;42.92
35519;BME280;21627;48.216;16.482;2023-07-28T11:14:19;99130.19;;;28.93;44.64
35519;BME280;21627;48.216;16.482;2023-07-28T11:16:47;99136.63;;;28.90;43.37
35519;BME280;21627;48.216;16.482;2023-07-28T11:19:16;99134.78;;;28.91;45.81
35519;BME280;21627;48.216;16.482;2023-07-28T11:21:46;99141.94;;;28.90;43.83
35519;BME280;21627;48.216;16.482;2023-07-28T11:24:19;99159.78;;;28.79;47.05
35519;BME280;21627;48.216;16.482;2023-07-28T11:26:48;99161.47;;;28.80;44.23
35519;BME280;21627;48.216;16.482;2023-07-28T11:29:16;99151.34;;;28.74;45.04
35519;BME280;21627;48.216;16.482;2023-07-28T11:31:45;99145.13;;;28.84;47.80
35519;BME280;21627;48.216;16.482;2023-07-28T11:34:16;99149.56;;;29.05;46.02
35519;BME280;21627;48.216;16.482;2023-07-28T11:36:44;99148.22;;;29.10;46.76
35519;BME280;21627;48.216;16.482;2023-07-28T11:39:11;99141.03;;;29.32;46.94
35519;BME280;21627;48.216;16.482;2023-07-28T11:41:40;99129.72;;;29.49;45.71
35519;BME280;21627;48.216;16.482;2023-07-28T11:44:08;99134.47;;;29.76;46.44
35519;BME280;21627;48.216;16.482;2023-07-28T11:46:40;99121.41;;;29.83;42.77
35519;BME280;21627;48.216;16.482;2023-07-28T11:49:17;99130.97;;;29.95;43.77
35519;BME280;21627;48.216;16.482;2023-07-28T11:51:54;99134.63;;;30.04;43.69
35519;BME280;21627;48.216;16.482;2023-07-28T11:54:23;99129.19;;;30.25;43.05
35519;BME280;21627;48.216;16.482;2023-07-28T11:56:55;99120.44;;;30.23;42.82
35519;BME280;21627;48.216;16.482;2023-07-28T11:59:22;99127.47;;;30.34;39.79
35519;BME280;21627;48.216;16.482;2023-07-28T12:01:59;99119.63;;;30.32;40.76
35519;BME280;21627;48.216;16.482;2023-07-28T12:04:32;99119.47;;;30.34;41.80
35519;BME280;21627;48.216;16.482;2023-07-28T12:07:16;99123.41;;;30.49;41.59
35519;BME280;21627;48.216;16.482;2023-07-28T12:12:14;99110.63;;;30.53;41.25
35519;BME280;21627;48.216;16.482;2023-07-28T12:14:45;99104.25;;;30.63;39.50
35519;BME280;21627;48.216;16.482;2023-07-28T12:17:35;99111.81;;;30.78;40.33
35519;BME280;21627;48.216;16.482;2023-07-28T12:20:08;99116.03;;;30.90;38.29
35519;BME280;21627;48.216;16.482;2023-07-28T12:22:41;99115.88;;;30.92;37.75
35519;BME280;21627;48.216;16.482;2023-07-28T12:25:10;99116.44;;;30.95;38.14
35519;BME280;21627;48.216;16.482;2023-07-28T12:27:37;99109.38;;;31.04;39.01
35519;BME280;21627;48.216;16.482;2023-07-28T12:30:05;99118.84;;;31.26;37.33
35519;BME280;21627;48.216;16.482;2023-07-28T12:32:42;99115.84;;;31.01;37.31
35519;BME280;21627;48.216;16.482;2023-07-28T12:35:30;99114.63;;;30.86;37.88
35519;BME280;21627;48.216;16.482;2023-07-28T12:38:05;99112.56;;;30.60;39.90
35519;BME280;21627;48.216;16.482;2023-07-28T12:40:35;99122.28;;;30.42;40.89
35519;BME280;21627;48.216;16.482;2023-07-28T12:43:05;99119.59;;;30.23;41.68
35519;BME280;21627;48.216;16.482;2023-07-28T12:45:34;99138.97;;;30.05;41.54
35519;BME280;21627;48.216;16.482;2023-07-28T12:48:04;99142.75;;;29.93;42.21
35519;BME280;21627;48.216;16.482;2023-07-28T12:50:31;99146.34;;;29.72;41.46
35519;BME280;21627;48.216;16.482;2023-07-28T12:53:01;99133.38;;;29.48;41.92
35519;BME280;21627;48.216;16.482;2023-07-28T12:55:41;99152.06;;;29.27;43.57
35519;BME280;21627;48.216;16.482;2023-07-28T12:58:26;99152.22;;;29.05;43.37
35519;BME280;21627;48.216;16.482;2023-07-28T13:00:57;99157.47;;;28.85;44.83
35519;BME280;21627;48.216;16.482;2023-07-28T13:03:29;99150.53;;;28.73;44.25